Avery Island, Louisiana
Current Conditions -  °F | °C
As of 1:53 AM on Saturday 25 Oct 2014 (Local Time) from KARA Reporting Station
Clear Clear  
Wind Chill: 55°   Ceiling: Unl
Heat Index: 55°   Visibility: 10mi
Dew Point: 51°   Wind: 3mph
Humidity: 86%   Direction: 350°N
Pressure: 30.12"   Gusts: NA
Location:  29.91°N, 91.91°W
Report Text: KARA 250653Z AUTO 35003KT 10SM CLR 13/11 A3012 RMK AO2 SLP200 T01280106 $
Loading
Personal Weather Stations






























Interactive Weather Map
Tropical Storm Tracking
New forecast layout! Learn more

10-Day Weather Forecast

Advertisements
Track Severe Weather on mobile